Time;durP1;ratioP1;P1;durP2;ratioP2;P2;SDS_P1;SDS_P2;PMS_P1;PMS_P2;Temp;Humidity;BMP_temperature;BMP_pressure;BME280_temperature;BME280_humidity;BME280_pressure;Samples;Min_cycle;Max_cycle;Signal;HPM_P1;HPM_P2
2021/12/14 00:00:46;;;;;;;;;126.67;94.00;;;;;-146.39;100.00;62182.44;6282666;20;3674717;-47
2021/12/14 00:03:22;;;;;;;;;110.00;85.33;;;;;-146.39;100.00;62182.44;6281560;20;3696099;-45
2021/12/14 00:05:54;;;;;;;;;104.33;76.33;;;;;-146.39;100.00;62182.44;6284075;20;3671065;-45
2021/12/14 00:08:26;;;;;;;;;97.33;73.67;;;;;-146.39;100.00;62182.44;6279529;20;3667347;-46
2021/12/14 00:11:14;;;;;;;;;101.00;74.33;;;;;-146.39;100.00;62182.44;6315499;20;3675329;-45
2021/12/14 00:13:56;;;;;;;;;103.33;74.00;;;;;-146.39;100.00;62182.44;6280496;20;3674169;-46
2021/12/14 00:16:26;;;;;;;;;101.67;71.00;;;;;-146.39;100.00;62182.44;6311886;20;3681516;-46
2021/12/14 00:18:56;;;;;;;;;109.33;83.00;;;;;-146.39;100.00;62182.44;6277562;20;3676400;-45
2021/12/14 00:21:30;;;;;;;;;95.33;71.00;;;;;-146.39;100.00;62182.44;6313970;20;3643042;-48
2021/12/14 00:24:09;;;;;;;;;109.00;86.67;;;;;-146.39;100.00;62182.44;6314869;20;3695008;-46
2021/12/14 00:27:05;;;;;;;;;104.00;74.33;;;;;-146.39;100.00;62182.44;6280009;20;3659614;-46
2021/12/14 00:29:48;;;;;;;;;100.00;74.67;;;;;-146.39;100.00;62182.44;6314298;20;3664855;-46
2021/12/14 00:32:26;;;;;;;;;104.00;74.00;;;;;-146.39;100.00;62182.44;6314694;20;3682678;-46
2021/12/14 00:34:59;;;;;;;;;107.00;82.00;;;;;-146.39;100.00;62182.44;6282342;20;3685784;-47
2021/12/14 00:37:36;;;;;;;;;124.00;95.67;;;;;-146.39;100.00;62182.44;6315692;20;3706578;-45
2021/12/14 00:40:27;;;;;;;;;109.00;83.00;;;;;-146.39;100.00;62182.44;6279081;20;3687820;-46
2021/12/14 00:42:59;;;;;;;;;103.33;77.00;;;;;-146.39;100.00;62182.44;6279926;20;3656526;-47
2021/12/14 00:45:34;;;;;;;;;92.67;67.33;;;;;-146.39;100.00;62182.44;6314082;20;3661727;-48
2021/12/14 00:48:07;;;;;;;;;108.33;78.67;;;;;-146.39;100.00;62182.44;6313086;20;3680588;-48
2021/12/14 00:50:44;;;;;;;;;108.33;81.67;;;;;-146.39;100.00;62182.44;6280287;20;3681603;-46
2021/12/14 00:53:14;;;;;;;;;117.67;79.67;;;;;-146.39;100.00;62182.44;6279970;20;3696050;-47
2021/12/14 00:55:49;;;;;;;;;114.67;81.33;;;;;-146.39;100.00;62182.44;6281112;20;3695092;-46
2021/12/14 00:58:22;;;;;;;;;108.33;81.33;;;;;-146.39;100.00;62182.44;6280134;20;3680467;-46
2021/12/14 01:01:17;;;;;;;;;105.00;73.33;;;;;-146.39;100.00;62182.44;6281695;20;3690841;-46
2021/12/14 01:03:59;;;;;;;;;106.33;82.00;;;;;-146.39;100.00;62182.44;6281763;20;3675248;-46
2021/12/14 01:06:36;;;;;;;;;104.67;78.67;;;;;-146.39;100.00;62182.44;6309458;20;3679385;-47
2021/12/14 01:09:07;;;;;;;;;112.00;87.67;;;;;-146.39;100.00;62182.44;6280115;20;3690962;-46
2021/12/14 01:11:44;;;;;;;;;110.67;80.00;;;;;-146.39;100.00;62182.44;6281557;20;3677347;-48
2021/12/14 01:14:40;;;;;;;;;104.33;74.00;;;;;-146.39;100.00;62182.44;6281280;20;3678342;-46
2021/12/14 01:17:42;;;;;;;;;98.33;72.33;;;;;-146.39;100.00;62182.44;6313771;20;3665836;-45
2021/12/14 01:20:15;;;;;;;;;92.67;69.67;;;;;-146.39;100.00;62182.44;6307665;20;2894293;-47
2021/12/14 01:22:48;;;;;;;;;97.33;72.00;;;;;-146.39;100.00;62182.44;6314535;20;3654573;-45
2021/12/14 01:25:35;;;;;;;;;96.67;69.67;;;;;-146.39;100.00;62182.44;6311466;20;3656572;-48
2021/12/14 01:28:13;;;;;;;;;100.00;73.00;;;;;-146.39;100.00;62182.44;6312108;20;3669373;-49
2021/12/14 01:31:16;;;;;;;;;96.33;69.00;;;;;-146.39;100.00;62182.44;6310812;20;3650335;-46
2021/12/14 01:33:56;;;;;;;;;94.33;71.00;;;;;-146.39;100.00;62182.44;6311123;20;3655448;-48
2021/12/14 01:36:41;;;;;;;;;98.33;73.67;;;;;-146.39;100.00;62182.44;6313303;20;3640897;-46
2021/12/14 01:39:48;;;;;;;;;91.67;71.67;;;;;-146.39;100.00;62182.44;6310304;20;3657056;-48
2021/12/14 01:42:37;;;;;;;;;95.00;71.00;;;;;-146.39;100.00;62182.44;6311706;20;2881516;-45
2021/12/14 01:45:23;;;;;;;;;96.33;68.33;;;;;-146.39;100.00;62182.44;6279376;20;3658739;-45
2021/12/14 01:47:58;;;;;;;;;97.33;70.67;;;;;-146.39;100.00;62182.44;6313734;20;3665033;-50
2021/12/14 01:50:38;;;;;;;;;97.67;70.00;;;;;-146.39;100.00;62182.44;6313636;20;3663795;-45
2021/12/14 01:53:10;;;;;;;;;95.33;70.00;;;;;-146.39;100.00;62182.44;6313437;20;3659617;-45
2021/12/14 01:55:44;;;;;;;;;90.33;68.00;;;;;-146.39;100.00;62182.44;6314466;20;3651342;-46
2021/12/14 01:58:14;;;;;;;;;94.67;69.33;;;;;-146.39;100.00;62182.44;6313183;20;3656516;-46
2021/12/14 02:00:59;;;;;;;;;96.33;69.00;;;;;-146.39;100.00;62182.44;6313633;20;2898254;-48
2021/12/14 02:03:56;;;;;;;;;85.00;66.00;;;;;-146.39;100.00;62182.44;6306345;20;2500265;-45
2021/12/14 02:06:32;;;;;;;;;85.00;65.00;;;;;-146.39;100.00;62182.44;6281530;20;2890920;-47
2021/12/14 02:09:10;;;;;;;;;78.00;59.00;;;;;-146.39;100.00;62182.44;6281695;20;2878374;-49
2021/12/14 02:11:50;;;;;;;;;82.00;64.00;;;;;-146.39;100.00;62182.44;6275341;20;2500245;-50
2021/12/14 02:14:20;;;;;;;;;81.50;62.00;;;;;-146.39;100.00;62182.44;6279806;20;2876337;-45
2021/12/14 02:16:57;;;;;;;;;89.00;68.33;;;;;-146.39;100.00;62182.44;6280349;20;2890943;-45
2021/12/14 02:19:27;;;;;;;;;79.00;63.50;;;;;-146.39;100.00;62182.44;6305351;20;2500650;-48
2021/12/14 02:21:59;;;;;;;;;35.00;16.00;;;;;-146.39;100.00;62182.44;6279463;20;3578458;-45
2021/12/14 02:24:30;;;;;;;;;77.00;60.00;;;;;-146.39;100.00;62182.44;6309887;20;2500293;-47
2021/12/14 02:27:01;;;;;;;;;82.67;61.33;;;;;-146.39;100.00;62182.44;6282110;20;2896090;-48
2021/12/14 02:29:41;;;;;;;;;84.67;61.67;;;;;-146.39;100.00;62182.44;6309308;20;2892006;-47
2021/12/14 02:32:20;;;;;;;;;76.00;58.00;;;;;-146.39;100.00;62182.44;6309725;20;2873334;-48
2021/12/14 02:35:00;;;;;;;;;75.00;58.00;;;;;-146.39;100.00;62182.44;6276349;20;2497229;-48
2021/12/14 02:38:02;;;;;;;;;77.50;57.00;;;;;-146.39;100.00;62182.44;6281356;20;2877318;-46
2021/12/14 02:40:54;;;;;;;;;87.33;58.33;;;;;-146.39;100.00;62182.44;6281173;20;3657546;-46
2021/12/14 02:43:52;;;;;;;;;74.67;52.67;;;;;-146.39;100.00;62182.44;6310264;20;2888804;-46
2021/12/14 02:46:40;;;;;;;;;91.67;58.67;;;;;-146.39;100.00;62182.44;6312346;20;3669067;-45
2021/12/14 02:49:16;;;;;;;;;76.50;58.50;;;;;-146.39;100.00;62182.44;6307554;20;2500325;-45
2021/12/14 02:51:57;;;;;;;;;77.00;61.00;;;;;-146.39;100.00;62182.44;6278101;20;2500265;-48
2021/12/14 02:54:42;;;;;;;;;74.00;63.00;;;;;-146.39;100.00;62182.44;6310356;20;2870032;-45
2021/12/14 02:57:21;;;;;;;;;87.00;64.50;;;;;-146.39;100.00;62182.44;6279901;20;2890898;-46
2021/12/14 02:59:53;;;;;;;;;73.00;57.50;;;;;-146.39;100.00;62182.44;6271055;20;2865876;-45
2021/12/14 03:02:34;;;;;;;;;84.00;60.00;;;;;-146.39;100.00;62182.44;6278638;20;2890890;-47
2021/12/14 03:05:21;;;;;;;;;78.50;58.00;;;;;-146.39;100.00;62182.44;6275294;20;2887880;-47
2021/12/14 03:08:17;;;;;;;;;75.00;54.00;;;;;-146.39;100.00;62182.44;6271091;20;2495053;-47
2021/12/14 03:11:11;;;;;;;;;67.50;51.50;;;;;-146.39;100.00;62182.44;6275276;20;2860694;-46
2021/12/14 03:13:51;;;;;;;;;67.50;52.00;;;;;-146.39;100.00;62182.44;6272754;20;2498351;-46
2021/12/14 03:16:30;;;;;;;;;75.50;58.00;;;;;-146.39;100.00;62182.44;6273284;20;2495061;-48
2021/12/14 03:19:02;;;;;;;;;75.00;56.00;;;;;-146.39;100.00;62182.44;6274339;20;2496078;-46
2021/12/14 03:21:38;;;;;;;;;63.67;47.00;;;;;-146.39;100.00;62182.44;6278996;20;2884761;-46
2021/12/14 03:24:14;;;;;;;;;72.67;50.00;;;;;-146.39;100.00;62182.44;6308322;20;2887798;-45
2021/12/14 03:26:51;;;;;;;;;64.00;50.00;;;;;-146.39;100.00;62182.44;6310360;20;2873398;-46
2021/12/14 03:29:29;;;;;;;;;68.00;50.50;;;;;-146.39;100.00;62182.44;6274360;20;2503810;-46
2021/12/14 03:31:59;;;;;;;;;57.50;44.00;;;;;-146.39;100.00;62182.44;6273333;20;2489962;-45
2021/12/14 03:34:38;;;;;;;;;48.00;38.50;;;;;-146.39;100.00;62182.44;6282781;20;2502506;-45
2021/12/14 03:37:22;;;;;;;;;69.50;50.50;;;;;-146.39;100.00;62182.44;6280202;20;2868021;-47
2021/12/14 03:39:59;;;;;;;;;65.00;50.00;;;;;-146.39;100.00;62182.44;6282034;20;2859679;-45
2021/12/14 03:42:38;;;;;;;;;67.00;48.00;;;;;-146.39;100.00;62182.44;6283554;20;2874355;-46
2021/12/14 03:45:19;;;;;;;;;52.50;45.00;;;;;-146.39;100.00;62182.44;6284242;20;2508591;-47
2021/12/14 03:47:59;;;;;;;;;63.00;44.67;;;;;-146.39;100.00;62182.44;6285096;20;2900421;-46
2021/12/14 03:50:39;;;;;;;;;60.50;47.00;;;;;-146.39;100.00;62182.44;6316030;20;2875268;-46
2021/12/14 03:53:12;;;;;;;;;62.00;51.00;;;;;-146.39;100.00;62182.44;6283887;20;2841941;-47
2021/12/14 03:55:53;;;;;;;;;81.67;60.00;;;;;-146.39;100.00;62182.44;6283048;20;3653335;-45
2021/12/14 03:58:35;;;;;;;;;73.00;52.00;;;;;-146.39;100.00;62182.44;6311213;20;2508618;-46
2021/12/14 04:01:27;;;;;;;;;80.00;60.00;;;;;-146.39;100.00;62182.44;6278287;20;2500243;-46
2021/12/14 04:04:14;;;;;;;;;87.33;64.33;;;;;-146.39;100.00;62182.44;6282151;20;3656496;-46
2021/12/14 04:06:51;;;;;;;;;105.67;73.33;;;;;-146.39;100.00;62182.44;6313936;20;3678436;-45
2021/12/14 04:09:28;;;;;;;;;97.00;70.67;;;;;-146.39;100.00;62182.44;6314868;20;3639793;-46
2021/12/14 04:11:58;;;;;;;;;85.67;67.00;;;;;-146.39;100.00;62182.44;6315752;20;2883601;-45
2021/12/14 04:14:30;;;;;;;;;84.33;64.00;;;;;-146.39;100.00;62182.44;6314181;20;2887741;-46
2021/12/14 04:17:02;;;;;;;;;72.50;54.50;;;;;-146.39;100.00;62182.44;6310181;20;2859651;-48
2021/12/14 04:19:32;;;;;;;;;87.00;66.33;;;;;-146.39;100.00;62182.44;6283319;20;2889818;-47
2021/12/14 04:22:11;;;;;;;;;113.67;82.00;;;;;-146.39;100.00;62182.44;6315958;20;3693990;-47
2021/12/14 04:24:44;;;;;;;;;117.67;78.00;;;;;-146.39;100.00;62182.44;6281127;20;3701272;-46
2021/12/14 04:27:30;;;;;;;;;106.00;73.00;;;;;-146.39;100.00;62182.44;6282594;20;3673300;-46
2021/12/14 04:30:07;;;;;;;;;100.00;69.00;;;;;-146.39;100.00;62182.44;6313870;20;3679406;-46
2021/12/14 04:32:37;;;;;;;;;94.67;66.00;;;;;-146.39;100.00;62182.44;6315744;20;2898332;-48
2021/12/14 04:35:09;;;;;;;;;95.67;74.00;;;;;-146.39;100.00;62182.44;6313070;20;3657664;-47
2021/12/14 04:37:41;;;;;;;;;96.00;66.67;;;;;-146.39;100.00;62182.44;6309063;20;3658576;-49
2021/12/14 04:40:34;;;;;;;;;91.33;67.67;;;;;-146.39;100.00;62182.44;6311465;20;2890131;-49
2021/12/14 04:52:01;;;;;;;;;97.67;69.00;;;;;-146.39;100.00;62182.44;6312108;20;3673163;-47
2021/12/14 04:55:08;;;;;;;;;100.67;72.00;;;;;-146.39;100.00;62182.44;6312976;20;3675257;-46
2021/12/14 04:57:48;;;;;;;;;105.67;70.33;;;;;-146.39;100.00;62182.44;6313580;20;3680500;-47
2021/12/14 05:00:44;;;;;;;;;105.33;71.33;;;;;-146.39;100.00;62182.44;6308693;20;3680684;-47
2021/12/14 05:04:00;;;;;;;;;95.33;69.33;;;;;-146.39;100.00;62182.44;6310182;20;2911824;-45
2021/12/14 05:06:50;;;;;;;;;93.00;66.00;;;;;-146.39;100.00;62182.44;6315254;20;3667982;-48
2021/12/14 05:09:28;;;;;;;;;107.67;77.00;;;;;-146.39;100.00;62182.44;6315612;20;3687803;-47
2021/12/14 05:12:14;;;;;;;;;113.00;87.00;;;;;-146.39;100.00;62182.44;6317232;20;3686692;-46
2021/12/14 05:14:46;;;;;;;;;112.33;87.67;;;;;-146.39;100.00;62182.44;6280202;20;3673218;-45
2021/12/14 05:17:25;;;;;;;;;115.00;81.33;;;;;-146.39;100.00;62182.44;6316505;20;3684607;-46
2021/12/14 05:19:56;;;;;;;;;98.33;67.33;;;;;-146.39;100.00;62182.44;6275390;20;3666188;-49
2021/12/14 05:22:34;;;;;;;;;116.67;86.33;;;;;-146.39;100.00;62182.44;6316620;20;3693983;-47
2021/12/14 05:25:25;;;;;;;;;99.00;75.33;;;;;-146.39;100.00;62182.44;6282360;20;2902418;-46
2021/12/14 05:28:00;;;;;;;;;116.33;83.67;;;;;-146.39;100.00;62182.44;6314955;20;3694203;-46
2021/12/14 05:30:40;;;;;;;;;102.67;77.33;;;;;-146.39;100.00;62182.44;6282155;20;2909847;-45
2021/12/14 05:33:26;;;;;;;;;97.67;70.00;;;;;-146.39;100.00;62182.44;6317312;20;3643077;-45
2021/12/14 05:36:08;;;;;;;;;92.33;67.67;;;;;-146.39;100.00;62182.44;6315758;20;3663758;-45
2021/12/14 05:38:54;;;;;;;;;89.67;64.67;;;;;-146.39;100.00;62182.44;6318180;20;3652719;-45
2021/12/14 05:44:25;;;;;;;;;93.00;70.00;;;;;-146.39;100.00;62182.44;6314724;20;2886743;-45
2021/12/14 05:47:05;;;;;;;;;73.00;57.00;;;;;-146.39;100.00;62182.44;6277634;20;2500372;-46
2021/12/14 05:49:37;;;;;;;;;82.00;59.00;;;;;-146.39;100.00;62182.44;6279007;20;2502327;-46
2021/12/14 05:52:26;;;;;;;;;76.50;56.00;;;;;-146.39;100.00;62182.44;6278455;20;2502338;-45
2021/12/14 05:54:58;;;;;;;;;92.33;66.00;;;;;-146.39;100.00;62182.44;6283635;20;3656573;-45
2021/12/14 05:57:28;;;;;;;;;87.00;66.00;;;;;-146.39;100.00;62182.44;6306383;20;2502343;-45
2021/12/14 05:59:57;;;;;;;;;99.67;73.67;;;;;-146.39;100.00;62182.44;6281756;20;3668986;-46
2021/12/14 06:02:27;;;;;;;;;93.00;72.00;;;;;-146.39;100.00;62182.44;6314910;20;2890924;-48
2021/12/14 06:04:56;;;;;;;;;88.50;66.00;;;;;-146.39;100.00;62182.44;6313563;20;2897226;-45
2021/12/14 06:07:26;;;;;;;;;91.60;69.40;;;;;-146.39;100.00;62182.44;6280748;20;3645028;-46
2021/12/14 06:09:56;;;;;;;;;96.00;71.33;;;;;-146.39;100.00;62182.44;6281067;20;2901370;-45
2021/12/14 06:12:32;;;;;;;;;107.00;78.67;;;;;-146.39;100.00;62182.44;6314945;20;3676264;-45
2021/12/14 06:15:08;;;;;;;;;109.00;79.67;;;;;-146.39;100.00;62182.44;6314891;20;3676710;-45
2021/12/14 06:17:42;;;;;;;;;115.33;88.67;;;;;-146.39;100.00;62182.44;6311300;20;3699263;-46
2021/12/14 06:20:26;;;;;;;;;110.00;78.33;;;;;-146.39;100.00;62182.44;6312399;20;3670046;-45
2021/12/14 06:22:56;;;;;;;;;108.33;79.33;;;;;-146.39;100.00;62182.44;6311779;20;3675206;-47
2021/12/14 06:25:29;;;;;;;;;105.67;75.67;;;;;-146.39;100.00;62182.44;6312371;20;3669999;-45
2021/12/14 06:28:01;;;;;;;;;116.33;76.00;;;;;-146.39;100.00;62182.44;6314240;20;3681554;-46
2021/12/14 06:30:35;;;;;;;;;94.00;64.00;;;;;-146.39;100.00;62182.44;6312234;20;2887901;-46
2021/12/14 06:33:09;;;;;;;;;120.33;98.33;;;;;-146.39;100.00;62182.44;6280148;20;3693962;-45
2021/12/14 06:35:47;;;;;;;;;107.00;76.00;;;;;-146.39;100.00;62182.44;6279707;20;3654377;-46
2021/12/14 06:38:30;;;;;;;;;111.33;78.67;;;;;-146.39;100.00;62182.44;6310716;20;3686698;-46
2021/12/14 06:41:21;;;;;;;;;106.33;77.33;;;;;-146.39;100.00;62182.44;6284930;20;3661724;-45
2021/12/14 06:43:58;;;;;;;;;109.00;77.33;;;;;-146.39;100.00;62182.44;6313649;20;3682568;-46
2021/12/14 06:46:37;;;;;;;;;100.67;75.00;;;;;-146.39;100.00;62182.44;6275191;20;2897229;-45
2021/12/14 06:49:13;;;;;;;;;108.33;74.33;;;;;-146.39;100.00;62182.44;6312050;20;3676279;-45
2021/12/14 06:51:50;;;;;;;;;105.33;78.00;;;;;-146.39;100.00;62182.44;6311285;20;3675322;-45
2021/12/14 06:54:28;;;;;;;;;115.83;86.83;;;;;-146.39;100.00;62182.44;6276509;20;4450260;-46
2021/12/14 06:57:05;;;;;;;;;135.67;109.67;;;;;-146.39;100.00;62182.44;6313114;20;3711662;-47
2021/12/14 06:59:35;;;;;;;;;172.00;142.33;;;;;-146.39;100.00;62182.44;6278665;20;3698144;-45
2021/12/14 07:02:10;;;;;;;;;142.00;113.67;;;;;-146.39;100.00;62182.44;6281555;20;3716874;-45
2021/12/14 07:04:48;;;;;;;;;153.67;120.33;;;;;-146.39;100.00;62182.44;6280687;20;3724218;-45
2021/12/14 07:07:27;;;;;;;;;124.67;89.00;;;;;-146.39;100.00;62182.44;6280789;20;3701243;-45
2021/12/14 07:10:03;;;;;;;;;202.33;156.00;;;;;-146.39;100.00;62182.44;6283083;20;3727338;-48
2021/12/14 07:12:38;;;;;;;;;170.67;137.33;;;;;-146.39;100.00;62182.44;6286251;20;3712786;-51
2021/12/14 07:15:26;;;;;;;;;116.33;86.00;;;;;-146.39;100.00;62182.44;6286289;20;3697151;-46
2021/12/14 07:18:03;;;;;;;;;158.50;128.00;;;;;-146.39;100.00;62182.44;6287511;20;3735836;-46
2021/12/14 07:20:45;;;;;;;;;112.00;83.33;;;;;-146.39;100.00;62182.44;6319086;20;3678412;-46
2021/12/14 07:23:33;;;;;;;;;113.33;90.67;;;;;-146.39;100.00;62182.44;6318299;20;3685734;-45
2021/12/14 07:26:06;;;;;;;;;102.00;78.33;;;;;-146.39;100.00;62182.44;6283772;20;3665843;-45
2021/12/14 07:28:44;;;;;;;;;111.33;88.67;;;;;-146.39;100.00;62182.44;6316791;20;3679373;-45
2021/12/14 07:31:23;;;;;;;;;142.67;105.67;;;;;-146.39;100.00;62182.44;6282200;20;3717924;-47
2021/12/14 07:33:59;;;;;;;;;164.75;132.25;;;;;-146.39;100.00;62182.44;6285706;20;4502352;-45
2021/12/14 07:36:36;;;;;;;;;133.00;104.00;;;;;-146.39;100.00;62182.44;6283722;20;3704367;-45
2021/12/14 07:39:18;;;;;;;;;134.00;97.33;;;;;-146.39;100.00;62182.44;6282723;20;3692948;-45
2021/12/14 07:41:58;;;;;;;;;133.67;102.67;;;;;-146.39;100.00;62182.44;6283901;20;3718956;-48
2021/12/14 07:44:34;;;;;;;;;135.33;97.00;;;;;-146.39;100.00;62182.44;6285983;20;3700285;-47
2021/12/14 07:47:19;;;;;;;;;142.33;112.00;;;;;-146.39;100.00;62182.44;6286203;20;3706470;-48
2021/12/14 07:49:55;;;;;;;;;118.00;94.67;;;;;-146.39;100.00;62182.44;6283973;20;3700322;-50
2021/12/14 07:52:36;;;;;;;;;121.67;97.33;;;;;-146.39;100.00;62182.44;6284377;20;3699172;-46
2021/12/14 07:55:19;;;;;;;;;109.67;78.00;;;;;-146.39;100.00;62182.44;6285505;20;3681644;-45
2021/12/14 07:57:50;;;;;;;;;138.00;109.67;;;;;-146.39;100.00;62182.44;6284612;20;3729385;-46
2021/12/14 08:00:29;;;;;;;;;158.75;130.50;;;;;-146.39;100.00;62182.44;6284206;20;3725355;-50
2021/12/14 08:03:02;;;;;;;;;187.25;155.75;;;;;-146.39;100.00;62182.44;6283851;20;3717942;-46
2021/12/14 08:05:44;;;;;;;;;162.00;130.75;;;;;-146.39;100.00;62182.44;6282907;20;4506494;-48
2021/12/14 08:08:42;;;;;;;;;165.50;137.00;;;;;-146.39;100.00;62182.44;6282987;20;3739951;-47
2021/12/14 08:11:40;;;;;;;;;119.00;107.33;;;;;-146.39;100.00;62182.44;6284034;20;3710766;-46
2021/12/14 08:14:25;;;;;;;;;117.00;94.33;;;;;-146.39;100.00;62182.44;6285141;20;3698172;-46
2021/12/14 08:17:09;;;;;;;;;148.50;120.25;;;;;-146.39;100.00;62182.44;6283436;20;4486627;-46
2021/12/14 08:19:43;;;;;;;;;113.33;90.00;;;;;-146.39;100.00;62182.44;6282755;20;3686657;-45
2021/12/14 08:22:30;;;;;;;;;96.33;71.00;;;;;-146.39;100.00;62182.44;6283188;20;3650269;-47
2021/12/14 08:25:02;;;;;;;;;97.00;73.33;;;;;-146.39;100.00;62182.44;6316749;20;2889026;-46
2021/12/14 08:27:32;;;;;;;;;93.33;71.33;;;;;-146.39;100.00;62182.44;6317370;20;3648175;-46
2021/12/14 08:30:13;;;;;;;;;90.00;67.50;;;;;-146.39;100.00;62182.44;6312633;20;2874262;-48
2021/12/14 08:32:43;;;;;;;;;100.67;76.00;;;;;-146.39;100.00;62182.44;6286058;20;3663786;-45
2021/12/14 08:35:14;;;;;;;;;100.67;72.67;;;;;-146.39;100.00;62182.44;6316100;20;3683590;-46
2021/12/14 08:37:53;;;;;;;;;100.00;76.33;;;;;-146.39;100.00;62182.44;6284428;20;3661691;-47
2021/12/14 08:40:37;;;;;;;;;95.67;71.33;;;;;-146.39;100.00;62182.44;6285406;20;3655463;-46
2021/12/14 08:43:20;;;;;;;;;99.67;75.67;;;;;-146.39;100.00;62182.44;6316545;20;3671044;-45
2021/12/14 08:46:10;;;;;;;;;104.67;77.33;;;;;-146.39;100.00;62182.44;6281945;20;3673176;-47
2021/12/14 08:48:53;;;;;;;;;111.00;78.00;;;;;-146.39;100.00;62182.44;6315813;20;3686732;-45
2021/12/14 08:51:37;;;;;;;;;109.33;85.67;;;;;-146.39;100.00;62182.44;6284926;20;3687771;-46
2021/12/14 08:54:21;;;;;;;;;108.00;86.00;;;;;-146.39;100.00;62182.44;6283727;20;3682602;-46
2021/12/14 08:57:20;;;;;;;;;108.00;82.67;;;;;-146.39;100.00;62182.44;6284483;20;3687739;-45
2021/12/14 08:59:58;;;;;;;;;100.67;73.33;;;;;-146.39;100.00;62182.44;6281497;20;3642940;-45
2021/12/14 09:02:35;;;;;;;;;93.67;72.00;;;;;-146.39;100.00;62182.44;6316273;20;3642950;-48
2021/12/14 09:05:18;;;;;;;;;83.50;62.00;;;;;-146.39;100.00;62182.44;6315105;20;2880553;-45
2021/12/14 09:07:48;;;;;;;;;81.00;60.00;;;;;-146.39;100.00;62182.44;6284362;20;2889936;-45
2021/12/14 09:10:24;;;;;;;;;84.33;61.33;;;;;-146.39;100.00;62182.44;6313292;20;3652376;-47
2021/12/14 09:13:04;;;;;;;;;90.00;67.33;;;;;-146.39;100.00;62182.44;6316368;20;3658589;-46
2021/12/14 09:15:53;;;;;;;;;79.67;62.00;;;;;-146.39;100.00;62182.44;6315527;20;2882645;-45
2021/12/14 09:18:25;;;;;;;;;84.00;61.67;;;;;-146.39;100.00;62182.44;6316087;20;3648154;-47
2021/12/14 09:21:13;;;;;;;;;86.00;66.00;;;;;-146.39;100.00;62182.44;6315036;20;3635654;-45
2021/12/14 09:23:52;;;;;;;;;72.50;55.00;;;;;-146.39;100.00;62182.44;6315539;20;2873232;-46
2021/12/14 09:26:31;;;;;;;;;78.00;59.00;;;;;-146.39;100.00;62182.44;6282669;20;2861864;-46
2021/12/14 09:29:05;;;;;;;;;78.33;60.33;;;;;-146.39;100.00;62182.44;6283004;20;2882622;-48
2021/12/14 09:31:40;;;;;;;;;79.33;61.00;;;;;-146.39;100.00;62182.44;6310965;20;3623125;-45
2021/12/14 09:34:13;;;;;;;;;85.33;64.00;;;;;-146.39;100.00;62182.44;6313535;20;3651247;-47
2021/12/14 09:36:45;;;;;;;;;80.33;63.67;;;;;-146.39;100.00;62182.44;6315370;20;2879544;-49
2021/12/14 09:39:24;;;;;;;;;147.00;132.00;;;;;-146.39;100.00;62182.44;6314373;20;3715830;-47
2021/12/14 09:42:03;;;;;;;;;69.00;53.33;;;;;-146.39;100.00;62182.44;6280286;20;2878485;-49
2021/12/14 09:44:36;;;;;;;;;80.00;61.00;;;;;-146.39;100.00;62182.44;6312213;20;2870075;-49
2021/12/14 09:47:15;;;;;;;;;77.33;59.00;;;;;-146.39;100.00;62182.44;6281876;20;3633557;-50
2021/12/14 09:49:49;;;;;;;;;75.33;59.00;;;;;-146.39;100.00;62182.44;6312931;20;2878560;-48
2021/12/14 09:52:30;;;;;;;;;80.00;58.33;;;;;-146.39;100.00;62182.44;6314662;20;3641884;-46
2021/12/14 09:55:09;;;;;;;;;78.33;59.00;;;;;-146.39;100.00;62182.44;6314835;20;3640828;-49
2021/12/14 09:57:50;;;;;;;;;81.67;65.00;;;;;-146.39;100.00;62182.44;6314752;20;3624168;-47
2021/12/14 10:00:25;;;;;;;;;65.50;48.00;;;;;-146.39;100.00;62182.44;6311608;20;2496093;-45
2021/12/14 10:02:59;;;;;;;;;80.00;62.67;;;;;-146.39;100.00;62182.44;6283437;20;3630498;-49
2021/12/14 10:05:57;;;;;;;;;80.00;61.33;;;;;-146.39;100.00;62182.44;6314761;20;3634703;-47
2021/12/14 10:08:39;;;;;;;;;95.00;66.33;;;;;-146.39;100.00;62182.44;6313945;20;3653360;-47
2021/12/14 10:11:41;;;;;;;;;102.33;76.00;;;;;-146.39;100.00;62182.44;6278521;20;3684576;-46
2021/12/14 10:14:13;;;;;;;;;77.33;61.00;;;;;-146.39;100.00;62182.44;6282808;20;2882543;-45
2021/12/14 10:16:43;;;;;;;;;83.67;61.33;;;;;-146.39;100.00;62182.44;6315322;20;3653455;-46
2021/12/14 10:19:21;;;;;;;;;96.00;76.33;;;;;-146.39;100.00;62182.44;6313599;20;2883718;-48
2021/12/14 10:22:08;;;;;;;;;79.00;60.33;;;;;-146.39;100.00;62182.44;6312000;20;3640910;-49
2021/12/14 10:24:39;;;;;;;;;205.25;175.75;;;;;-146.39;100.00;62182.44;6313282;20;3725233;-46
2021/12/14 10:27:15;;;;;;;;;74.67;58.67;;;;;-146.39;100.00;62182.44;6309974;20;2879514;-48
2021/12/14 10:29:46;;;;;;;;;74.33;58.67;;;;;-146.39;100.00;62182.44;6309633;20;2875446;-49
2021/12/14 10:32:27;;;;;;;;;83.00;62.67;;;;;-146.39;100.00;62182.44;6311845;20;3649173;-45
2021/12/14 10:35:08;;;;;;;;;75.67;57.00;;;;;-146.39;100.00;62182.44;6314027;20;3646067;-46
2021/12/14 10:44:05;;;;;;;;;73.67;57.33;;;;;-146.39;100.00;62182.44;6312891;20;3629422;-48
2021/12/14 10:46:46;;;;;;;;;80.33;61.33;;;;;-146.39;100.00;62182.44;6310858;20;3651308;-46
2021/12/14 10:49:19;;;;;;;;;74.33;58.00;;;;;-146.39;100.00;62182.44;6312605;20;3632529;-48
2021/12/14 10:52:02;;;;;;;;;73.00;57.67;;;;;-146.39;100.00;62182.44;6313258;20;3624162;-46
2021/12/14 10:54:34;;;;;;;;;72.67;54.33;;;;;-146.39;100.00;62182.44;6314537;20;3623206;-47
2021/12/14 10:57:12;;;;;;;;;71.67;55.00;;;;;-146.39;100.00;62182.44;6312810;20;3636754;-46
2021/12/14 10:59:49;;;;;;;;;65.00;52.00;;;;;-146.39;100.00;62182.44;6312083;20;2875258;-46
2021/12/14 11:02:23;;;;;;;;;66.67;50.67;;;;;-146.39;100.00;62182.44;6312854;20;2872127;-47
2021/12/14 11:04:58;;;;;;;;;59.50;46.00;;;;;-146.39;100.00;62182.44;6312799;20;2866920;-46
2021/12/14 11:07:40;;;;;;;;;63.00;50.67;;;;;-146.39;100.00;62182.44;6280170;20;2868058;-48
2021/12/14 11:10:16;;;;;;;;;59.00;47.00;;;;;-146.39;100.00;62182.44;6311450;20;2857560;-46
2021/12/14 11:12:52;;;;;;;;;65.00;50.00;;;;;-146.39;100.00;62182.44;6280856;20;2875336;-46
2021/12/14 11:15:36;;;;;;;;;62.00;50.50;;;;;-146.39;100.00;62182.44;6281359;20;2858600;-46
2021/12/14 11:18:25;;;;;;;;;55.50;45.50;;;;;-146.39;100.00;62182.44;6281240;20;2835762;-47
2021/12/14 11:21:07;;;;;;;;;70.00;51.50;;;;;-146.39;100.00;62182.44;6280462;20;2864857;-47
2021/12/14 11:23:44;;;;;;;;;47.33;38.33;;;;;-146.39;100.00;62182.44;6280640;20;2872294;-46
2021/12/14 11:26:34;;;;;;;;;50.00;41.00;;;;;-146.39;100.00;62182.44;6312760;20;2857628;-47
2021/12/14 11:29:13;;;;;;;;;50.67;38.00;;;;;-146.39;100.00;62182.44;6311255;20;3634632;-47
2021/12/14 11:31:47;;;;;;;;;44.33;34.00;;;;;-146.39;100.00;62182.44;6310497;20;3624237;-51
2021/12/14 11:34:36;;;;;;;;;50.67;40.00;;;;;-146.39;100.00;62182.44;6310186;20;2866935;-46
2021/12/14 11:37:16;;;;;;;;;39.00;34.50;;;;;-146.39;100.00;62182.44;6312141;20;2861726;-49
2021/12/14 11:39:54;;;;;;;;;41.67;35.00;;;;;-146.39;100.00;62182.44;6279453;20;2871128;-46
2021/12/14 11:42:27;;;;;;;;;47.67;39.00;;;;;-146.39;100.00;62182.44;6312612;20;3600304;-45
2021/12/14 11:45:13;;;;;;;;;41.67;32.67;;;;;-146.39;100.00;62182.44;6312177;20;3612706;-45
2021/12/14 11:47:53;;;;;;;;;30.50;27.50;;;;;-146.39;100.00;62182.44;6311698;20;2849289;-46